Nashville, Tennessee
Traffic Map
Current Weather Conditions
Nashville, Tennessee
Overcast
Overcast
61°
Feels Like: 61°
Wind Chill: 61° Ceiling: 4700
Heat Index: 61° Visibility: 10mi
Dew Point: 57° Wind: 0mph
Humidity: 87% Direction: ° ()
Pressure: 30.04in Gusts: 0mph
Raw Report DataKBNA 010253Z 00000KT 10SM SCT031 OVC047 16/14 A3004 RMK AO2 SLP171 T01610139 50002
Traffic Incident Summary
Active as of:
Severity:
Category:
InformationThere was an issue retrieving the traffic information for this location. Please try a different location or try again shortly.
Advertisements
Track Severe Weather on mobile